Aérodrome :
LOGIN :

S'inscrire | Disclaimer

   EN    FR    IT 

 










Légende :    VFR   VFR Marginal   IFR   IFR Intensif   IFR Très Intensif
Visi : 
Plafond : 
>= 8 km
>= 3000ft
5 à 8 km
1000 à 3000 ft
1500m à 5 km
500 à 1000 ft
800 à 1500m
200 à 500 ft
< 800m
< 200 ft
Symboles :   Orages  Brouillard  Fortes neiges  Fortes précipitations  Vent > 20 kt
SIGMETs :   Divers  Orages  Givrage  Turbulence  Onde Orograph.  Cendres Volcan.






- Altitude de l'aérodrome : 18 ft
- Code IATA : KVA


LGKV - Megas Alexandros

DERNIER METAR :
  • 091450Z 05012KT 9999 FEW025CB FEW030TCU 34/14 Q1007

METARs EXPIRÉS :
  • 091420Z 04011KT 9999 FEW030TCU 34/14 Q1007
  • 091350Z 05016KT 9999 FEW030TCU 35/14 Q1007
  • 091320Z 05015G25KT 9999 FEW030 36/14 Q1007
  • 091250Z 06015KT 9999 FEW030 36/14 Q1007

TAF TAF LGKV
Valide du 09 à 12h jusqu'au 10 à 12h UTC


091100Z 0912/1012 06015KT 9999 FEW025 SCT080
TEMPO 0912/0914 06015G25KT
PROB30
TEMPO 0914/0918 7000 SHRA FEW020TCU BKN080
BECMG 0918/0920 CAVOK



MET'MAP, la Météo Aéronautique d'un coup d'oeil ! - Copyright ORBIFLY Décembre 2007 - Disclaimer

ORBIFLY MET'MAP TEAM :

Programmation & Développement : Alexandra Zaïnal
Sur une idée originale de : Baudouin d'Aumeries
Assistance à la programmation : Marc-Olivier Méhu
Soutien technique & logistique : Manuel Goepfert

Contact : metmap@orbifly.com




SOURCES & CREDITS :

   NOAA